sensor_id;sensor_type;location;lat;lon;timestamp;P1;durP1;ratioP1;P2;durP2;ratioP2
6207;SDS011;3137;51.550;7.060;2024-02-14T00:00:43;6.87;;;6.27;;
6207;SDS011;3137;51.550;7.060;2024-02-14T00:03:10;6.57;;;6.17;;
6207;SDS011;3137;51.550;7.060;2024-02-14T00:05:36;7.80;;;6.00;;
6207;SDS011;3137;51.550;7.060;2024-02-14T00:08:03;8.67;;;6.00;;
6207;SDS011;3137;51.550;7.060;2024-02-14T00:10:31;6.30;;;5.80;;
6207;SDS011;3137;51.550;7.060;2024-02-14T00:12:57;6.67;;;6.17;;
6207;SDS011;3137;51.550;7.060;2024-02-14T00:15:25;5.90;;;5.60;;
6207;SDS011;3137;51.550;7.060;2024-02-14T00:17:51;7.07;;;6.57;;
6207;SDS011;3137;51.550;7.060;2024-02-14T00:20:19;5.67;;;5.57;;
6207;SDS011;3137;51.550;7.060;2024-02-14T00:22:46;5.63;;;5.13;;
6207;SDS011;3137;51.550;7.060;2024-02-14T00:25:13;6.27;;;5.87;;
6207;SDS011;3137;51.550;7.060;2024-02-14T00:27:43;7.70;;;6.17;;
6207;SDS011;3137;51.550;7.060;2024-02-14T00:30:09;7.80;;;6.10;;
6207;SDS011;3137;51.550;7.060;2024-02-14T00:32:36;6.90;;;6.23;;
6207;SDS011;3137;51.550;7.060;2024-02-14T00:35:03;6.73;;;6.27;;
6207;SDS011;3137;51.550;7.060;2024-02-14T00:37:30;6.00;;;5.63;;
6207;SDS011;3137;51.550;7.060;2024-02-14T00:39:57;6.60;;;5.67;;
6207;SDS011;3137;51.550;7.060;2024-02-14T00:42:24;6.60;;;6.03;;
6207;SDS011;3137;51.550;7.060;2024-02-14T00:44:50;5.30;;;5.03;;
6207;SDS011;3137;51.550;7.060;2024-02-14T00:47:17;5.57;;;5.20;;
6207;SDS011;3137;51.550;7.060;2024-02-14T00:49:44;9.33;;;5.40;;
6207;SDS011;3137;51.550;7.060;2024-02-14T00:52:11;5.07;;;4.67;;
6207;SDS011;3137;51.550;7.060;2024-02-14T00:54:37;6.27;;;5.53;;
6207;SDS011;3137;51.550;7.060;2024-02-14T00:57:04;7.77;;;6.00;;
6207;SDS011;3137;51.550;7.060;2024-02-14T00:59:31;5.30;;;5.10;;
6207;SDS011;3137;51.550;7.060;2024-02-14T01:01:57;6.93;;;5.63;;
6207;SDS011;3137;51.550;7.060;2024-02-14T01:04:24;5.33;;;5.03;;
6207;SDS011;3137;51.550;7.060;2024-02-14T01:06:51;7.63;;;5.23;;
6207;SDS011;3137;51.550;7.060;2024-02-14T01:09:18;5.53;;;5.13;;
6207;SDS011;3137;51.550;7.060;2024-02-14T01:11:45;6.60;;;4.93;;
6207;SDS011;3137;51.550;7.060;2024-02-14T01:14:11;5.30;;;4.80;;
6207;SDS011;3137;51.550;7.060;2024-02-14T01:16:43;5.57;;;5.07;;
6207;SDS011;3137;51.550;7.060;2024-02-14T01:19:10;4.67;;;4.57;;
6207;SDS011;3137;51.550;7.060;2024-02-14T01:21:37;5.00;;;4.70;;
6207;SDS011;3137;51.550;7.060;2024-02-14T01:24:04;5.50;;;5.07;;
6207;SDS011;3137;51.550;7.060;2024-02-14T01:26:35;7.63;;;4.70;;
6207;SDS011;3137;51.550;7.060;2024-02-14T01:29:01;4.50;;;4.30;;
6207;SDS011;3137;51.550;7.060;2024-02-14T01:31:28;4.60;;;4.50;;
6207;SDS011;3137;51.550;7.060;2024-02-14T01:33:55;4.53;;;4.13;;
6207;SDS011;3137;51.550;7.060;2024-02-14T01:36:22;4.33;;;4.03;;
6207;SDS011;3137;51.550;7.060;2024-02-14T01:38:49;4.57;;;4.27;;
6207;SDS011;3137;51.550;7.060;2024-02-14T01:41:16;4.23;;;4.13;;
6207;SDS011;3137;51.550;7.060;2024-02-14T01:43:42;3.50;;;3.40;;
6207;SDS011;3137;51.550;7.060;2024-02-14T01:46:10;4.03;;;3.60;;
6207;SDS011;3137;51.550;7.060;2024-02-14T01:48:37;4.20;;;4.00;;
6207;SDS011;3137;51.550;7.060;2024-02-14T01:51:05;4.43;;;4.23;;
6207;SDS011;3137;51.550;7.060;2024-02-14T01:53:36;5.40;;;3.87;;
6207;SDS011;3137;51.550;7.060;2024-02-14T01:56:04;3.87;;;3.67;;
6207;SDS011;3137;51.550;7.060;2024-02-14T01:58:32;3.83;;;3.53;;
6207;SDS011;3137;51.550;7.060;2024-02-14T02:01:00;3.93;;;3.67;;
6207;SDS011;3137;51.550;7.060;2024-02-14T02:03:27;3.20;;;3.10;;
6207;SDS011;3137;51.550;7.060;2024-02-14T02:05:54;3.13;;;3.03;;
6207;SDS011;3137;51.550;7.060;2024-02-14T02:08:21;5.23;;;3.77;;
6207;SDS011;3137;51.550;7.060;2024-02-14T02:10:48;4.33;;;3.90;;
6207;SDS011;3137;51.550;7.060;2024-02-14T02:13:14;3.33;;;3.13;;
6207;SDS011;3137;51.550;7.060;2024-02-14T02:15:41;2.70;;;2.70;;
6207;SDS011;3137;51.550;7.060;2024-02-14T02:18:11;3.67;;;3.57;;
6207;SDS011;3137;51.550;7.060;2024-02-14T02:20:37;5.07;;;3.60;;
6207;SDS011;3137;51.550;7.060;2024-02-14T02:23:04;2.70;;;2.70;;
6207;SDS011;3137;51.550;7.060;2024-02-14T02:25:31;2.60;;;2.60;;
6207;SDS011;3137;51.550;7.060;2024-02-14T02:27:57;2.93;;;2.83;;
6207;SDS011;3137;51.550;7.060;2024-02-14T02:30:24;2.60;;;2.50;;
6207;SDS011;3137;51.550;7.060;2024-02-14T02:32:51;3.60;;;3.40;;
6207;SDS011;3137;51.550;7.060;2024-02-14T02:35:18;2.83;;;2.83;;
6207;SDS011;3137;51.550;7.060;2024-02-14T02:37:47;2.60;;;2.60;;
6207;SDS011;3137;51.550;7.060;2024-02-14T02:40:16;2.80;;;2.70;;
6207;SDS011;3137;51.550;7.060;2024-02-14T02:42:43;2.90;;;2.67;;
6207;SDS011;3137;51.550;7.060;2024-02-14T02:45:11;2.60;;;2.50;;
6207;SDS011;3137;51.550;7.060;2024-02-14T02:47:38;2.20;;;2.20;;
6207;SDS011;3137;51.550;7.060;2024-02-14T02:50:04;2.57;;;2.50;;
6207;SDS011;3137;51.550;7.060;2024-02-14T02:52:32;4.43;;;2.20;;
6207;SDS011;3137;51.550;7.060;2024-02-14T02:54:58;2.50;;;2.40;;
6207;SDS011;3137;51.550;7.060;2024-02-14T02:57:25;2.57;;;2.57;;
6207;SDS011;3137;51.550;7.060;2024-02-14T02:59:53;2.50;;;2.30;;
6207;SDS011;3137;51.550;7.060;2024-02-14T03:02:20;2.50;;;2.40;;
6207;SDS011;3137;51.550;7.060;2024-02-14T03:04:46;9.17;;;2.30;;
6207;SDS011;3137;51.550;7.060;2024-02-14T03:07:21;2.03;;;2.03;;
6207;SDS011;3137;51.550;7.060;2024-02-14T03:09:49;2.57;;;2.40;;
6207;SDS011;3137;51.550;7.060;2024-02-14T03:12:16;2.30;;;2.20;;
6207;SDS011;3137;51.550;7.060;2024-02-14T03:14:42;1.77;;;1.70;;
6207;SDS011;3137;51.550;7.060;2024-02-14T03:17:10;1.97;;;1.67;;
6207;SDS011;3137;51.550;7.060;2024-02-14T03:19:36;2.50;;;2.00;;
6207;SDS011;3137;51.550;7.060;2024-02-14T03:22:05;2.00;;;2.00;;
6207;SDS011;3137;51.550;7.060;2024-02-14T03:24:31;2.50;;;2.40;;
6207;SDS011;3137;51.550;7.060;2024-02-14T03:27:01;6.63;;;2.47;;
6207;SDS011;3137;51.550;7.060;2024-02-14T03:29:30;6.00;;;2.57;;
6207;SDS011;3137;51.550;7.060;2024-02-14T03:31:57;3.23;;;2.63;;
6207;SDS011;3137;51.550;7.060;2024-02-14T03:34:25;2.37;;;2.37;;
6207;SDS011;3137;51.550;7.060;2024-02-14T03:36:52;3.27;;;2.93;;
6207;SDS011;3137;51.550;7.060;2024-02-14T03:39:19;2.17;;;2.17;;
6207;SDS011;3137;51.550;7.060;2024-02-14T03:41:45;2.20;;;2.20;;
6207;SDS011;3137;51.550;7.060;2024-02-14T03:44:12;2.50;;;2.40;;
6207;SDS011;3137;51.550;7.060;2024-02-14T03:46:39;3.47;;;3.00;;
6207;SDS011;3137;51.550;7.060;2024-02-14T03:49:06;2.23;;;2.23;;
6207;SDS011;3137;51.550;7.060;2024-02-14T03:51:32;2.77;;;2.67;;
6207;SDS011;3137;51.550;7.060;2024-02-14T03:53:59;3.07;;;2.60;;
6207;SDS011;3137;51.550;7.060;2024-02-14T03:56:26;3.60;;;2.60;;
6207;SDS011;3137;51.550;7.060;2024-02-14T03:58:52;2.70;;;2.70;;
6207;SDS011;3137;51.550;7.060;2024-02-14T04:01:19;2.77;;;2.60;;
6207;SDS011;3137;51.550;7.060;2024-02-14T04:03:46;3.47;;;3.40;;
6207;SDS011;3137;51.550;7.060;2024-02-14T04:06:14;3.87;;;3.57;;
6207;SDS011;3137;51.550;7.060;2024-02-14T04:08:41;2.73;;;2.73;;
6207;SDS011;3137;51.550;7.060;2024-02-14T04:11:07;3.03;;;3.00;;
6207;SDS011;3137;51.550;7.060;2024-02-14T04:13:33;3.70;;;3.60;;
6207;SDS011;3137;51.550;7.060;2024-02-14T04:16:00;3.87;;;3.77;;
6207;SDS011;3137;51.550;7.060;2024-02-14T04:18:27;3.93;;;3.80;;
6207;SDS011;3137;51.550;7.060;2024-02-14T04:20:53;3.13;;;3.10;;
6207;SDS011;3137;51.550;7.060;2024-02-14T04:23:20;2.90;;;2.90;;
6207;SDS011;3137;51.550;7.060;2024-02-14T04:25:47;3.17;;;3.10;;
6207;SDS011;3137;51.550;7.060;2024-02-14T04:28:14;8.43;;;4.07;;
6207;SDS011;3137;51.550;7.060;2024-02-14T04:30:40;3.90;;;3.80;;
6207;SDS011;3137;51.550;7.060;2024-02-14T04:33:07;3.40;;;3.40;;
6207;SDS011;3137;51.550;7.060;2024-02-14T04:35:39;4.20;;;4.13;;
6207;SDS011;3137;51.550;7.060;2024-02-14T04:38:06;3.77;;;3.47;;
6207;SDS011;3137;51.550;7.060;2024-02-14T04:40:35;3.97;;;3.80;;
6207;SDS011;3137;51.550;7.060;2024-02-14T04:43:01;3.60;;;3.60;;
6207;SDS011;3137;51.550;7.060;2024-02-14T04:45:27;3.77;;;3.67;;
6207;SDS011;3137;51.550;7.060;2024-02-14T04:47:54;3.30;;;3.30;;
6207;SDS011;3137;51.550;7.060;2024-02-14T04:50:20;8.77;;;3.97;;
6207;SDS011;3137;51.550;7.060;2024-02-14T04:52:47;6.70;;;3.67;;
6207;SDS011;3137;51.550;7.060;2024-02-14T04:55:13;4.17;;;3.87;;
6207;SDS011;3137;51.550;7.060;2024-02-14T04:57:40;4.23;;;4.13;;
6207;SDS011;3137;51.550;7.060;2024-02-14T05:00:06;3.67;;;3.57;;
6207;SDS011;3137;51.550;7.060;2024-02-14T05:02:35;3.63;;;3.53;;
6207;SDS011;3137;51.550;7.060;2024-02-14T05:05:02;3.97;;;3.80;;
6207;SDS011;3137;51.550;7.060;2024-02-14T05:07:29;5.03;;;4.67;;
6207;SDS011;3137;51.550;7.060;2024-02-14T05:09:55;3.67;;;3.50;;
6207;SDS011;3137;51.550;7.060;2024-02-14T05:12:22;4.90;;;4.80;;
6207;SDS011;3137;51.550;7.060;2024-02-14T05:14:49;4.87;;;4.60;;
6207;SDS011;3137;51.550;7.060;2024-02-14T05:17:15;4.53;;;4.33;;
6207;SDS011;3137;51.550;7.060;2024-02-14T05:19:42;4.33;;;4.23;;
6207;SDS011;3137;51.550;7.060;2024-02-14T05:22:09;3.20;;;3.03;;
6207;SDS011;3137;51.550;7.060;2024-02-14T05:24:36;4.40;;;4.20;;
6207;SDS011;3137;51.550;7.060;2024-02-14T05:27:04;4.90;;;4.80;;
6207;SDS011;3137;51.550;7.060;2024-02-14T05:29:31;4.53;;;4.17;;
6207;SDS011;3137;51.550;7.060;2024-02-14T05:32:01;5.17;;;4.97;;
6207;SDS011;3137;51.550;7.060;2024-02-14T05:34:28;5.20;;;4.80;;
6207;SDS011;3137;51.550;7.060;2024-02-14T05:36:54;7.83;;;4.93;;
6207;SDS011;3137;51.550;7.060;2024-02-14T05:39:21;4.57;;;4.37;;
6207;SDS011;3137;51.550;7.060;2024-02-14T05:41:48;4.80;;;4.70;;
6207;SDS011;3137;51.550;7.060;2024-02-14T05:44:15;5.70;;;5.27;;
6207;SDS011;3137;51.550;7.060;2024-02-14T05:46:41;4.70;;;4.67;;
6207;SDS011;3137;51.550;7.060;2024-02-14T05:49:08;4.67;;;4.57;;
6207;SDS011;3137;51.550;7.060;2024-02-14T05:51:35;5.40;;;5.20;;
6207;SDS011;3137;51.550;7.060;2024-02-14T05:54:01;5.20;;;5.07;;
6207;SDS011;3137;51.550;7.060;2024-02-14T05:56:28;5.07;;;4.97;;
6207;SDS011;3137;51.550;7.060;2024-02-14T05:58:54;4.77;;;4.67;;
6207;SDS011;3137;51.550;7.060;2024-02-14T06:01:21;5.00;;;4.87;;
6207;SDS011;3137;51.550;7.060;2024-02-14T06:03:48;4.57;;;4.43;;
6207;SDS011;3137;51.550;7.060;2024-02-14T06:06:14;5.47;;;5.07;;
6207;SDS011;3137;51.550;7.060;2024-02-14T06:08:41;4.57;;;4.37;;
6207;SDS011;3137;51.550;7.060;2024-02-14T06:11:07;6.70;;;5.00;;
6207;SDS011;3137;51.550;7.060;2024-02-14T06:13:34;5.23;;;5.13;;
6207;SDS011;3137;51.550;7.060;2024-02-14T06:16:01;5.30;;;5.20;;
6207;SDS011;3137;51.550;7.060;2024-02-14T06:18:28;5.17;;;5.07;;
6207;SDS011;3137;51.550;7.060;2024-02-14T06:20:55;5.73;;;5.43;;
6207;SDS011;3137;51.550;7.060;2024-02-14T06:23:21;6.33;;;6.10;;
6207;SDS011;3137;51.550;7.060;2024-02-14T06:25:48;7.57;;;7.23;;
6207;SDS011;3137;51.550;7.060;2024-02-14T06:28:14;6.97;;;6.77;;
6207;SDS011;3137;51.550;7.060;2024-02-14T06:30:41;8.10;;;7.50;;
6207;SDS011;3137;51.550;7.060;2024-02-14T06:33:07;8.13;;;7.57;;
6207;SDS011;3137;51.550;7.060;2024-02-14T06:35:34;9.57;;;7.83;;
6207;SDS011;3137;51.550;7.060;2024-02-14T06:38:01;9.10;;;8.23;;
6207;SDS011;3137;51.550;7.060;2024-02-14T06:40:30;8.07;;;7.60;;
6207;SDS011;3137;51.550;7.060;2024-02-14T06:42:58;7.40;;;6.70;;
6207;SDS011;3137;51.550;7.060;2024-02-14T06:45:26;8.03;;;7.30;;
6207;SDS011;3137;51.550;7.060;2024-02-14T06:47:54;8.33;;;7.73;;
6207;SDS011;3137;51.550;7.060;2024-02-14T06:50:21;8.13;;;7.57;;
6207;SDS011;3137;51.550;7.060;2024-02-14T06:52:48;7.97;;;7.50;;
6207;SDS011;3137;51.550;7.060;2024-02-14T06:55:14;9.37;;;8.47;;
6207;SDS011;3137;51.550;7.060;2024-02-14T06:57:40;9.70;;;8.00;;
6207;SDS011;3137;51.550;7.060;2024-02-14T07:00:07;8.13;;;7.67;;
6207;SDS011;3137;51.550;7.060;2024-02-14T07:02:35;7.13;;;6.77;;
6207;SDS011;3137;51.550;7.060;2024-02-14T07:05:01;6.80;;;6.53;;
6207;SDS011;3137;51.550;7.060;2024-02-14T07:07:28;8.10;;;7.40;;
6207;SDS011;3137;51.550;7.060;2024-02-14T07:09:55;6.40;;;6.20;;
6207;SDS011;3137;51.550;7.060;2024-02-14T07:12:21;7.23;;;6.93;;
6207;SDS011;3137;51.550;7.060;2024-02-14T07:14:47;6.43;;;6.23;;
6207;SDS011;3137;51.550;7.060;2024-02-14T07:17:14;6.63;;;6.53;;
6207;SDS011;3137;51.550;7.060;2024-02-14T07:19:40;9.07;;;8.40;;
6207;SDS011;3137;51.550;7.060;2024-02-14T07:22:09;7.87;;;7.37;;
6207;SDS011;3137;51.550;7.060;2024-02-14T07:24:35;7.83;;;7.10;;
6207;SDS011;3137;51.550;7.060;2024-02-14T07:27:02;7.20;;;6.90;;
6207;SDS011;3137;51.550;7.060;2024-02-14T07:29:28;10.77;;;8.00;;
6207;SDS011;3137;51.550;7.060;2024-02-14T07:31:55;7.83;;;7.53;;
6207;SDS011;3137;51.550;7.060;2024-02-14T07:34:24;9.03;;;8.37;;
6207;SDS011;3137;51.550;7.060;2024-02-14T07:36:52;8.80;;;8.30;;
6207;SDS011;3137;51.550;7.060;2024-02-14T07:39:18;8.20;;;7.90;;
6207;SDS011;3137;51.550;7.060;2024-02-14T07:41:45;9.00;;;8.07;;
6207;SDS011;3137;51.550;7.060;2024-02-14T07:44:12;8.37;;;7.77;;
6207;SDS011;3137;51.550;7.060;2024-02-14T07:46:39;8.00;;;7.57;;
6207;SDS011;3137;51.550;7.060;2024-02-14T07:49:06;8.80;;;8.30;;
6207;SDS011;3137;51.550;7.060;2024-02-14T07:51:33;8.37;;;7.87;;
6207;SDS011;3137;51.550;7.060;2024-02-14T07:54:04;9.80;;;9.10;;
6207;SDS011;3137;51.550;7.060;2024-02-14T07:56:31;8.00;;;7.40;;
6207;SDS011;3137;51.550;7.060;2024-02-14T07:58:57;10.33;;;8.10;;
6207;SDS011;3137;51.550;7.060;2024-02-14T08:01:26;10.07;;;8.50;;
6207;SDS011;3137;51.550;7.060;2024-02-14T08:03:53;7.57;;;7.27;;
6207;SDS011;3137;51.550;7.060;2024-02-14T08:06:19;8.33;;;7.83;;
6207;SDS011;3137;51.550;7.060;2024-02-14T08:08:46;6.90;;;6.60;;
6207;SDS011;3137;51.550;7.060;2024-02-14T08:11:15;7.73;;;7.23;;
6207;SDS011;3137;51.550;7.060;2024-02-14T08:13:41;7.63;;;7.17;;
6207;SDS011;3137;51.550;7.060;2024-02-14T08:16:08;7.67;;;6.70;;
6207;SDS011;3137;51.550;7.060;2024-02-14T08:18:34;7.93;;;7.53;;
6207;SDS011;3137;51.550;7.060;2024-02-14T08:21:01;7.43;;;6.83;;
6207;SDS011;3137;51.550;7.060;2024-02-14T08:23:28;8.17;;;7.63;;
6207;SDS011;3137;51.550;7.060;2024-02-14T08:25:54;8.20;;;7.53;;
6207;SDS011;3137;51.550;7.060;2024-02-14T08:28:21;8.13;;;7.67;;
6207;SDS011;3137;51.550;7.060;2024-02-14T08:30:47;10.60;;;7.17;;
6207;SDS011;3137;51.550;7.060;2024-02-14T08:33:14;10.53;;;7.27;;
6207;SDS011;3137;51.550;7.060;2024-02-14T08:35:40;7.83;;;5.80;;
6207;SDS011;3137;51.550;7.060;2024-02-14T08:38:09;6.63;;;6.43;;
6207;SDS011;3137;51.550;7.060;2024-02-14T08:40:36;6.13;;;6.03;;
6207;SDS011;3137;51.550;7.060;2024-02-14T08:43:03;6.63;;;6.30;;
6207;SDS011;3137;51.550;7.060;2024-02-14T08:45:30;6.33;;;6.00;;
6207;SDS011;3137;51.550;7.060;2024-02-14T08:47:57;5.63;;;5.53;;
6207;SDS011;3137;51.550;7.060;2024-02-14T08:50:24;5.67;;;5.33;;
6207;SDS011;3137;51.550;7.060;2024-02-14T08:52:50;8.33;;;5.47;;
6207;SDS011;3137;51.550;7.060;2024-02-14T08:55:17;6.57;;;6.10;;
6207;SDS011;3137;51.550;7.060;2024-02-14T08:57:44;5.83;;;5.33;;
6207;SDS011;3137;51.550;7.060;2024-02-14T09:00:11;6.77;;;6.17;;
6207;SDS011;3137;51.550;7.060;2024-02-14T09:02:46;5.63;;;5.43;;
6207;SDS011;3137;51.550;7.060;2024-02-14T09:05:16;6.57;;;6.10;;
6207;SDS011;3137;51.550;7.060;2024-02-14T09:07:43;6.03;;;5.73;;
6207;SDS011;3137;51.550;7.060;2024-02-14T09:10:10;7.10;;;6.47;;
6207;SDS011;3137;51.550;7.060;2024-02-14T09:12:38;10.03;;;6.63;;
6207;SDS011;3137;51.550;7.060;2024-02-14T09:15:07;11.50;;;6.70;;
6207;SDS011;3137;51.550;7.060;2024-02-14T09:17:34;8.80;;;7.13;;
6207;SDS011;3137;51.550;7.060;2024-02-14T09:20:01;8.47;;;7.13;;
6207;SDS011;3137;51.550;7.060;2024-02-14T09:22:28;8.87;;;7.00;;
6207;SDS011;3137;51.550;7.060;2024-02-14T09:24:54;6.00;;;5.80;;
6207;SDS011;3137;51.550;7.060;2024-02-14T09:27:22;6.67;;;6.20;;
6207;SDS011;3137;51.550;7.060;2024-02-14T09:29:49;6.07;;;5.77;;
6207;SDS011;3137;51.550;7.060;2024-02-14T09:32:16;7.33;;;6.20;;
6207;SDS011;3137;51.550;7.060;2024-02-14T09:34:42;7.17;;;6.60;;
6207;SDS011;3137;51.550;7.060;2024-02-14T09:37:09;6.30;;;5.70;;
6207;SDS011;3137;51.550;7.060;2024-02-14T09:39:36;7.83;;;7.13;;
6207;SDS011;3137;51.550;7.060;2024-02-14T09:42:05;6.27;;;5.67;;
6207;SDS011;3137;51.550;7.060;2024-02-14T09:44:39;4.83;;;4.73;;
6207;SDS011;3137;51.550;7.060;2024-02-14T09:47:07;5.30;;;4.93;;
6207;SDS011;3137;51.550;7.060;2024-02-14T09:49:35;5.47;;;5.20;;
6207;SDS011;3137;51.550;7.060;2024-02-14T09:52:05;5.43;;;4.40;;
6207;SDS011;3137;51.550;7.060;2024-02-14T09:54:32;4.40;;;4.07;;
6207;SDS011;3137;51.550;7.060;2024-02-14T09:57:01;5.10;;;4.90;;
6207;SDS011;3137;51.550;7.060;2024-02-14T09:59:28;6.27;;;4.10;;
6207;SDS011;3137;51.550;7.060;2024-02-14T10:01:55;5.43;;;5.13;;
6207;SDS011;3137;51.550;7.060;2024-02-14T10:04:22;4.97;;;4.57;;
6207;SDS011;3137;51.550;7.060;2024-02-14T10:06:52;4.73;;;4.53;;
6207;SDS011;3137;51.550;7.060;2024-02-14T10:09:22;5.40;;;5.13;;
6207;SDS011;3137;51.550;7.060;2024-02-14T10:11:49;5.57;;;4.53;;
6207;SDS011;3137;51.550;7.060;2024-02-14T10:14:15;5.13;;;4.67;;
6207;SDS011;3137;51.550;7.060;2024-02-14T10:16:42;8.53;;;5.23;;
6207;SDS011;3137;51.550;7.060;2024-02-14T10:19:17;8.13;;;4.70;;
6207;SDS011;3137;51.550;7.060;2024-02-14T10:21:54;7.40;;;5.60;;
6207;SDS011;3137;51.550;7.060;2024-02-14T10:24:24;4.30;;;4.00;;
6207;SDS011;3137;51.550;7.060;2024-02-14T10:26:54;4.37;;;4.27;;
6207;SDS011;3137;51.550;7.060;2024-02-14T10:29:24;6.30;;;4.43;;
6207;SDS011;3137;51.550;7.060;2024-02-14T10:31:52;4.50;;;4.07;;
6207;SDS011;3137;51.550;7.060;2024-02-14T10:34:18;6.63;;;3.77;;
6207;SDS011;3137;51.550;7.060;2024-02-14T10:36:51;3.90;;;3.80;;
6207;SDS011;3137;51.550;7.060;2024-02-14T10:39:19;4.43;;;4.23;;
6207;SDS011;3137;51.550;7.060;2024-02-14T10:41:47;4.23;;;4.07;;
6207;SDS011;3137;51.550;7.060;2024-02-14T10:44:14;4.40;;;4.00;;
6207;SDS011;3137;51.550;7.060;2024-02-14T10:46:40;5.03;;;4.60;;
6207;SDS011;3137;51.550;7.060;2024-02-14T10:49:07;5.07;;;4.77;;
6207;SDS011;3137;51.550;7.060;2024-02-14T10:51:35;5.70;;;5.23;;
6207;SDS011;3137;51.550;7.060;2024-02-14T10:54:10;5.23;;;3.30;;
6207;SDS011;3137;51.550;7.060;2024-02-14T10:56:45;3.47;;;3.37;;
6207;SDS011;3137;51.550;7.060;2024-02-14T10:59:15;3.27;;;3.20;;
6207;SDS011;3137;51.550;7.060;2024-02-14T11:01:44;3.63;;;3.33;;
6207;SDS011;3137;51.550;7.060;2024-02-14T11:04:11;4.80;;;3.70;;
6207;SDS011;3137;51.550;7.060;2024-02-14T11:06:48;4.37;;;4.07;;
6207;SDS011;3137;51.550;7.060;2024-02-14T11:09:19;3.73;;;3.53;;
6207;SDS011;3137;51.550;7.060;2024-02-14T11:11:45;4.53;;;4.33;;
6207;SDS011;3137;51.550;7.060;2024-02-14T11:14:16;4.03;;;3.53;;
6207;SDS011;3137;51.550;7.060;2024-02-14T11:16:48;4.03;;;3.93;;
6207;SDS011;3137;51.550;7.060;2024-02-14T11:19:14;4.13;;;3.83;;
6207;SDS011;3137;51.550;7.060;2024-02-14T11:21:46;4.27;;;3.80;;
6207;SDS011;3137;51.550;7.060;2024-02-14T11:24:15;4.77;;;4.47;;
6207;SDS011;3137;51.550;7.060;2024-02-14T11:26:49;11.17;;;3.90;;
6207;SDS011;3137;51.550;7.060;2024-02-14T11:29:18;4.50;;;4.17;;
6207;SDS011;3137;51.550;7.060;2024-02-14T11:31:56;8.60;;;3.90;;
6207;SDS011;3137;51.550;7.060;2024-02-14T11:34:25;4.50;;;3.50;;
6207;SDS011;3137;51.550;7.060;2024-02-14T11:36:51;4.60;;;4.47;;
6207;SDS011;3137;51.550;7.060;2024-02-14T11:39:18;9.60;;;4.10;;
6207;SDS011;3137;51.550;7.060;2024-02-14T11:41:44;4.27;;;3.97;;
6207;SDS011;3137;51.550;7.060;2024-02-14T11:44:11;8.07;;;4.30;;
6207;SDS011;3137;51.550;7.060;2024-02-14T11:46:38;5.60;;;4.50;;
6207;SDS011;3137;51.550;7.060;2024-02-14T11:49:05;6.07;;;4.53;;
6207;SDS011;3137;51.550;7.060;2024-02-14T11:51:33;4.37;;;3.97;;
6207;SDS011;3137;51.550;7.060;2024-02-14T11:54:01;9.20;;;3.93;;
6207;SDS011;3137;51.550;7.060;2024-02-14T11:56:33;4.13;;;3.97;;
6207;SDS011;3137;51.550;7.060;2024-02-14T11:59:01;4.80;;;3.73;;
6207;SDS011;3137;51.550;7.060;2024-02-14T12:01:33;6.80;;;4.50;;
6207;SDS011;3137;51.550;7.060;2024-02-14T12:04:02;4.67;;;4.37;;
6207;SDS011;3137;51.550;7.060;2024-02-14T12:06:30;5.93;;;5.57;;
6207;SDS011;3137;51.550;7.060;2024-02-14T12:09:01;5.10;;;4.70;;
6207;SDS011;3137;51.550;7.060;2024-02-14T12:11:32;4.53;;;4.33;;
6207;SDS011;3137;51.550;7.060;2024-02-14T12:14:02;7.23;;;5.83;;
6207;SDS011;3137;51.550;7.060;2024-02-14T12:16:29;6.10;;;5.70;;
6207;SDS011;3137;51.550;7.060;2024-02-14T12:19:07;4.97;;;4.33;;
6207;SDS011;3137;51.550;7.060;2024-02-14T12:21:36;5.07;;;4.67;;
6207;SDS011;3137;51.550;7.060;2024-02-14T12:24:06;5.87;;;5.50;;
6207;SDS011;3137;51.550;7.060;2024-02-14T12:26:37;6.90;;;5.03;;
6207;SDS011;3137;51.550;7.060;2024-02-14T12:29:05;4.57;;;4.43;;
6207;SDS011;3137;51.550;7.060;2024-02-14T12:31:33;4.93;;;4.73;;
6207;SDS011;3137;51.550;7.060;2024-02-14T12:34:00;7.20;;;6.23;;
6207;SDS011;3137;51.550;7.060;2024-02-14T12:36:29;4.73;;;4.43;;
6207;SDS011;3137;51.550;7.060;2024-02-14T12:38:56;4.63;;;4.33;;
6207;SDS011;3137;51.550;7.060;2024-02-14T12:41:22;6.50;;;5.23;;
6207;SDS011;3137;51.550;7.060;2024-02-14T12:43:53;5.60;;;5.30;;
6207;SDS011;3137;51.550;7.060;2024-02-14T12:46:20;7.73;;;2.93;;
6207;SDS011;3137;51.550;7.060;2024-02-14T12:48:46;4.33;;;3.83;;
6207;SDS011;3137;51.550;7.060;2024-02-14T12:51:14;4.80;;;4.60;;
6207;SDS011;3137;51.550;7.060;2024-02-14T12:53:43;3.63;;;3.53;;
6207;SDS011;3137;51.550;7.060;2024-02-14T12:56:10;3.90;;;3.77;;
6207;SDS011;3137;51.550;7.060;2024-02-14T12:58:36;3.17;;;2.87;;
6207;SDS011;3137;51.550;7.060;2024-02-14T13:01:03;3.27;;;3.17;;
6207;SDS011;3137;51.550;7.060;2024-02-14T13:03:32;2.40;;;2.40;;
6207;SDS011;3137;51.550;7.060;2024-02-14T13:05:59;3.27;;;2.93;;
6207;SDS011;3137;51.550;7.060;2024-02-14T13:08:26;2.33;;;2.23;;
6207;SDS011;3137;51.550;7.060;2024-02-14T13:10:53;3.60;;;2.23;;
6207;SDS011;3137;51.550;7.060;2024-02-14T13:13:19;2.57;;;2.47;;
6207;SDS011;3137;51.550;7.060;2024-02-14T13:15:46;2.50;;;2.23;;
6207;SDS011;3137;51.550;7.060;2024-02-14T13:18:12;2.27;;;2.23;;
6207;SDS011;3137;51.550;7.060;2024-02-14T13:20:40;3.73;;;3.63;;
6207;SDS011;3137;51.550;7.060;2024-02-14T13:23:08;2.03;;;1.93;;
6207;SDS011;3137;51.550;7.060;2024-02-14T13:25:35;2.20;;;2.20;;
6207;SDS011;3137;51.550;7.060;2024-02-14T13:28:03;2.50;;;2.50;;
6207;SDS011;3137;51.550;7.060;2024-02-14T13:30:30;2.53;;;2.53;;
6207;SDS011;3137;51.550;7.060;2024-02-14T13:32:57;2.40;;;2.40;;
6207;SDS011;3137;51.550;7.060;2024-02-14T13:35:23;2.60;;;2.40;;
6207;SDS011;3137;51.550;7.060;2024-02-14T13:37:50;2.30;;;2.30;;
6207;SDS011;3137;51.550;7.060;2024-02-14T13:40:16;3.50;;;2.93;;
6207;SDS011;3137;51.550;7.060;2024-02-14T13:42:43;2.60;;;2.40;;
6207;SDS011;3137;51.550;7.060;2024-02-14T13:45:09;8.63;;;3.17;;
6207;SDS011;3137;51.550;7.060;2024-02-14T13:47:37;2.83;;;2.73;;
6207;SDS011;3137;51.550;7.060;2024-02-14T13:50:09;2.63;;;2.43;;
6207;SDS011;3137;51.550;7.060;2024-02-14T13:52:36;2.47;;;2.47;;
6207;SDS011;3137;51.550;7.060;2024-02-14T13:55:03;2.90;;;2.70;;
6207;SDS011;3137;51.550;7.060;2024-02-14T13:57:33;2.67;;;2.57;;
6207;SDS011;3137;51.550;7.060;2024-02-14T14:00:02;3.70;;;2.50;;
6207;SDS011;3137;51.550;7.060;2024-02-14T14:02:37;2.93;;;2.93;;
6207;SDS011;3137;51.550;7.060;2024-02-14T14:05:12;4.40;;;2.70;;
6207;SDS011;3137;51.550;7.060;2024-02-14T14:07:43;2.87;;;2.80;;
6207;SDS011;3137;51.550;7.060;2024-02-14T14:10:23;2.67;;;2.67;;
6207;SDS011;3137;51.550;7.060;2024-02-14T14:12:54;2.60;;;2.57;;
6207;SDS011;3137;51.550;7.060;2024-02-14T14:15:21;6.20;;;3.10;;
6207;SDS011;3137;51.550;7.060;2024-02-14T14:17:49;2.80;;;2.60;;
6207;SDS011;3137;51.550;7.060;2024-02-14T14:20:16;4.77;;;2.70;;
6207;SDS011;3137;51.550;7.060;2024-02-14T14:22:42;4.43;;;2.57;;
6207;SDS011;3137;51.550;7.060;2024-02-14T14:25:09;5.60;;;2.67;;
6207;SDS011;3137;51.550;7.060;2024-02-14T14:27:35;3.30;;;3.20;;
6207;SDS011;3137;51.550;7.060;2024-02-14T14:30:02;2.97;;;2.90;;
6207;SDS011;3137;51.550;7.060;2024-02-14T14:32:30;2.20;;;2.20;;
6207;SDS011;3137;51.550;7.060;2024-02-14T14:34:57;1.90;;;1.90;;
6207;SDS011;3137;51.550;7.060;2024-02-14T14:37:23;2.60;;;2.40;;
6207;SDS011;3137;51.550;7.060;2024-02-14T14:39:50;2.53;;;2.40;;
6207;SDS011;3137;51.550;7.060;2024-02-14T14:42:17;2.97;;;2.27;;
6207;SDS011;3137;51.550;7.060;2024-02-14T14:44:44;3.93;;;2.53;;
6207;SDS011;3137;51.550;7.060;2024-02-14T14:47:11;2.37;;;2.27;;
6207;SDS011;3137;51.550;7.060;2024-02-14T14:49:37;2.10;;;2.00;;
6207;SDS011;3137;51.550;7.060;2024-02-14T14:52:05;2.13;;;2.13;;
6207;SDS011;3137;51.550;7.060;2024-02-14T14:54:31;2.43;;;2.40;;
6207;SDS011;3137;51.550;7.060;2024-02-14T14:56:57;2.70;;;2.20;;
6207;SDS011;3137;51.550;7.060;2024-02-14T14:59:24;3.07;;;2.87;;
6207;SDS011;3137;51.550;7.060;2024-02-14T15:01:50;2.70;;;2.60;;
6207;SDS011;3137;51.550;7.060;2024-02-14T15:04:17;2.37;;;2.37;;
6207;SDS011;3137;51.550;7.060;2024-02-14T15:06:46;2.53;;;2.43;;
6207;SDS011;3137;51.550;7.060;2024-02-14T15:09:13;2.57;;;2.37;;
6207;SDS011;3137;51.550;7.060;2024-02-14T15:11:40;9.30;;;2.50;;
6207;SDS011;3137;51.550;7.060;2024-02-14T15:14:06;2.40;;;2.37;;
6207;SDS011;3137;51.550;7.060;2024-02-14T15:16:33;2.23;;;2.23;;